Time;durP1;ratioP1;P1;durP2;ratioP2;P2;SDS_P1;SDS_P2;PMS_P1;PMS_P2;Temp;Humidity;BMP_temperature;BMP_pressure;BME280_temperature;BME280_humidity;BME280_pressure;Samples;Min_cycle;Max_cycle;Signal;HPM_P1;HPM_P2
2021/01/24 00:00:28;;;;;;;9.70;5.87;;;3.90;89.80;;;;;;5044489;28;20442;-81
2021/01/24 00:02:54;;;;;;;7.10;5.07;;;3.90;90.00;;;;;;5041009;28;20917;-81
2021/01/24 00:05:23;;;;;;;8.10;5.83;;;3.90;89.80;;;;;;5042694;28;20201;-82
2021/01/24 00:07:49;;;;;;;12.53;6.60;;;3.90;89.60;;;;;;5024240;28;20195;-82
2021/01/24 00:10:18;;;;;;;8.70;6.27;;;3.90;89.60;;;;;;5033043;28;20945;-83
2021/01/24 00:12:45;;;;;;;8.63;5.80;;;3.90;89.60;;;;;;5063277;28;20497;-81
2021/01/24 00:15:11;;;;;;;9.17;6.37;;;3.90;89.90;;;;;;5062262;28;20443;-81
2021/01/24 00:17:36;;;;;;;12.27;7.60;;;4.00;90.00;;;;;;5064523;28;20408;-81
2021/01/24 00:20:03;;;;;;;13.07;7.10;;;3.90;89.80;;;;;;5064526;28;20458;-82
2021/01/24 00:22:29;;;;;;;8.70;5.70;;;3.90;89.80;;;;;;5043801;28;20194;-83
2021/01/24 00:25:00;;;;;;;9.80;6.13;;;3.90;89.70;;;;;;5042508;28;20449;-84
2021/01/24 00:27:26;;;;;;;10.80;6.80;;;3.90;89.60;;;;;;5023858;28;20742;-83
2021/01/24 00:29:51;;;;;;;11.37;6.77;;;3.90;89.60;;;;;;5042179;28;20461;-82
2021/01/24 00:32:18;;;;;;;12.50;6.63;;;3.90;89.80;;;;;;5025740;28;20190;-81
2021/01/24 00:34:44;;;;;;;10.20;6.20;;;3.90;90.00;;;;;;5050031;28;20167;-83
2021/01/24 00:37:11;;;;;;;7.13;5.40;;;3.90;90.00;;;;;;5040922;28;20405;-82
2021/01/24 00:39:37;;;;;;;9.20;6.57;;;3.90;90.10;;;;;;5040588;28;20417;-82
2021/01/24 00:42:03;;;;;;;11.30;8.00;;;3.90;90.10;;;;;;5056417;28;20458;-83
2021/01/24 00:44:29;;;;;;;11.60;7.83;;;3.90;90.00;;;;;;5044740;28;20162;-82
2021/01/24 00:46:54;;;;;;;11.93;6.40;;;3.90;90.00;;;;;;5075307;28;20404;-82
2021/01/24 00:49:20;;;;;;;11.27;7.10;;;3.90;90.10;;;;;;5065049;28;20212;-83
2021/01/24 00:51:46;;;;;;;13.70;8.93;;;3.90;90.10;;;;;;5029846;28;20694;-84
2021/01/24 00:54:13;;;;;;;11.83;7.10;;;3.90;90.10;;;;;;5009282;28;20417;-83
2021/01/24 00:56:39;;;;;;;11.17;8.13;;;3.90;90.10;;;;;;5018488;28;20956;-83
2021/01/24 00:59:05;;;;;;;9.53;6.97;;;3.90;90.10;;;;;;5034642;28;20178;-82
2021/01/24 01:01:31;;;;;;;11.83;6.67;;;3.90;90.20;;;;;;5036574;28;20710;-83
2021/01/24 01:03:56;;;;;;;10.50;6.90;;;3.90;90.20;;;;;;5049101;28;20432;-83
2021/01/24 01:06:22;;;;;;;10.67;7.77;;;3.90;90.20;;;;;;5053260;28;20195;-81
2021/01/24 01:08:47;;;;;;;13.80;8.27;;;3.90;90.20;;;;;;5073946;28;20166;-81
2021/01/24 01:11:13;;;;;;;12.17;8.30;;;3.90;90.20;;;;;;5064443;28;20205;-82
2021/01/24 01:13:39;;;;;;;11.47;7.60;;;3.90;90.30;;;;;;5041536;28;20170;-82
2021/01/24 01:16:05;;;;;;;12.90;8.60;;;3.90;90.40;;;;;;5060317;28;20173;-83
2021/01/24 01:18:31;;;;;;;17.90;8.77;;;3.90;90.40;;;;;;5061070;28;20559;-82
2021/01/24 01:20:57;;;;;;;13.47;8.13;;;3.90;90.50;;;;;;5053550;28;20448;-82
2021/01/24 01:23:24;;;;;;;10.50;7.40;;;4.00;90.60;;;;;;5022327;28;20197;-82
2021/01/24 01:25:54;;;;;;;10.77;8.00;;;4.00;90.60;;;;;;5029470;28;20412;-81
2021/01/24 01:28:20;;;;;;;10.27;6.50;;;3.90;90.50;;;;;;5040237;28;20439;-83
2021/01/24 01:30:46;;;;;;;7.80;6.40;;;3.90;90.30;;;;;;5047509;28;20820;-84
2021/01/24 01:33:12;;;;;;;9.03;5.67;;;3.70;90.20;;;;;;5062505;28;20431;-82
2021/01/24 01:35:37;;;;;;;7.43;4.73;;;3.60;90.30;;;;;;5045738;28;20299;-82
2021/01/24 01:38:03;;;;;;;7.00;5.17;;;3.50;90.20;;;;;;5050593;28;20257;-81
2021/01/24 01:40:29;;;;;;;8.67;5.80;;;3.30;90.00;;;;;;5044121;28;20178;-82
2021/01/24 01:42:58;;;;;;;5.90;4.70;;;3.20;90.00;;;;;;5040682;28;20198;-80
2021/01/24 01:45:24;;;;;;;7.10;4.53;;;3.00;90.30;;;;;;5041734;28;20171;-80
2021/01/24 01:47:51;;;;;;;7.23;4.03;;;2.90;89.90;;;;;;5023585;28;20429;-80
2021/01/24 01:50:18;;;;;;;6.10;3.60;;;2.80;89.80;;;;;;5048595;28;20542;-83
2021/01/24 01:52:44;;;;;;;6.20;3.10;;;2.70;90.10;;;;;;5061148;28;20995;-79
2021/01/24 01:55:10;;;;;;;7.20;3.03;;;2.60;90.30;;;;;;5059772;28;20503;-79
2021/01/24 01:57:36;;;;;;;4.50;3.17;;;2.60;89.50;;;;;;5058920;28;20416;-78
2021/01/24 02:00:03;;;;;;;4.13;2.80;;;2.50;89.50;;;;;;5053148;28;20439;-79
2021/01/24 02:02:58;;;;;;;6.53;2.80;;;2.40;90.10;;;;;;5023285;28;20201;-79
2021/01/24 02:05:36;;;;;;;4.30;3.20;;;2.40;90.10;;;;;;5075546;28;20442;-77
2021/01/24 02:08:34;;;;;;;3.73;2.50;;;2.40;90.10;;;;;;5033716;28;20526;-78
2021/01/24 02:11:20;;;;;;;6.20;3.23;;;2.30;90.00;;;;;;5032659;28;20960;-78
2021/01/24 02:14:05;;;;;;;4.43;2.90;;;2.30;90.10;;;;;;5047387;28;20460;-76
2021/01/24 02:16:33;;;;;;;4.60;2.97;;;2.20;90.00;;;;;;5035838;28;20409;-78
2021/01/24 02:19:01;;;;;;;3.70;3.00;;;2.20;89.70;;;;;;5037370;28;20412;-79
2021/01/24 02:21:31;;;;;;;3.87;3.33;;;2.10;90.00;;;;;;5035343;28;20433;-81
2021/01/24 02:24:01;;;;;;;4.17;2.87;;;2.10;90.10;;;;;;5043083;28;20925;-79
2021/01/24 02:26:41;;;;;;;4.10;2.90;;;2.10;90.20;;;;;;5054672;28;20418;-78
2021/01/24 02:29:31;;;;;;;3.10;2.50;;;2.10;90.00;;;;;;5055759;28;20408;-78
2021/01/24 02:32:00;;;;;;;2.93;2.47;;;2.00;90.00;;;;;;5056562;28;20988;-79
2021/01/24 02:34:30;;;;;;;3.00;2.30;;;2.00;90.00;;;;;;5043450;28;20447;-77
2021/01/24 02:36:57;;;;;;;3.40;1.93;;;1.90;90.10;;;;;;5018198;28;20417;-77
2021/01/24 02:39:23;;;;;;;1.60;1.37;;;1.90;90.10;;;;;;5036548;28;20838;-78
2021/01/24 02:41:50;;;;;;;2.60;1.33;;;1.90;90.00;;;;;;5055307;28;20469;-78
2021/01/24 02:44:16;;;;;;;2.10;1.57;;;1.90;90.00;;;;;;5047150;28;20421;-79
2021/01/24 02:46:43;;;;;;;1.57;1.13;;;1.80;90.10;;;;;;5037372;28;20748;-78
2021/01/24 02:49:10;;;;;;;2.33;1.40;;;1.80;90.20;;;;;;5037496;28;20406;-78
2021/01/24 02:51:37;;;;;;;2.73;1.63;;;1.80;90.20;;;;;;5025603;28;20436;-79
2021/01/24 02:54:03;;;;;;;3.00;1.67;;;1.70;90.20;;;;;;5048264;28;20425;-79
2021/01/24 02:56:29;;;;;;;2.60;1.80;;;1.70;90.30;;;;;;5037154;28;20439;-80
2021/01/24 02:58:56;;;;;;;1.77;1.53;;;1.60;90.40;;;;;;5018771;28;20922;-77
2021/01/24 03:01:22;;;;;;;2.93;1.80;;;1.60;90.60;;;;;;5036700;28;20441;-79
2021/01/24 03:03:47;;;;;;;2.03;1.40;;;1.60;90.60;;;;;;5025007;28;20424;-80
2021/01/24 03:06:14;;;;;;;1.80;1.23;;;1.60;90.60;;;;;;5026286;28;20816;-78
2021/01/24 03:08:40;;;;;;;2.03;1.27;;;1.60;90.60;;;;;;5034794;28;20198;-78
2021/01/24 03:11:11;;;;;;;1.00;0.77;;;1.50;90.70;;;;;;5018515;28;20993;-80
2021/01/24 03:13:43;;;;;;;1.70;0.80;;;1.50;90.90;;;;;;5036858;28;20424;-79
2021/01/24 03:16:12;;;;;;;1.63;1.00;;;1.50;91.20;;;;;;5056272;28;20487;-80
2021/01/24 03:18:40;;;;;;;1.00;0.63;;;1.50;90.90;;;;;;5036798;28;20411;-79
2021/01/24 03:21:09;;;;;;;1.13;0.73;;;1.40;90.90;;;;;;5054190;28;20419;-78
2021/01/24 03:23:36;;;;;;;1.40;0.70;;;1.40;91.00;;;;;;5018562;28;20420;-78
2021/01/24 03:26:04;;;;;;;1.30;0.60;;;1.40;91.10;;;;;;5037911;28;20428;-78
2021/01/24 03:28:30;;;;;;;1.50;0.80;;;1.40;91.20;;;;;;5036991;28;20408;-78
2021/01/24 03:30:56;;;;;;;1.50;0.80;;;1.40;91.30;;;;;;5038724;28;20510;-81
2021/01/24 03:33:22;;;;;;;1.83;0.60;;;1.40;91.40;;;;;;5056935;28;20408;-79
2021/01/24 03:35:47;;;;;;;1.10;0.50;;;1.40;91.40;;;;;;5063474;28;20177;-79
2021/01/24 03:38:13;;;;;;;1.30;0.67;;;1.40;91.30;;;;;;5063481;28;20181;-76
2021/01/24 03:40:39;;;;;;;1.40;0.67;;;1.40;91.30;;;;;;5040786;28;20173;-79
2021/01/24 03:43:04;;;;;;;1.47;0.67;;;1.40;91.40;;;;;;5054680;28;20807;-79
2021/01/24 03:45:30;;;;;;;1.03;0.70;;;1.30;91.30;;;;;;5054191;28;20205;-76
2021/01/24 03:47:56;;;;;;;1.50;0.70;;;1.30;91.40;;;;;;5056323;28;20629;-76
2021/01/24 03:50:21;;;;;;;1.00;0.60;;;1.30;91.90;;;;;;5036834;28;20729;-76
2021/01/24 03:52:47;;;;;;;1.30;0.90;;;1.30;91.60;;;;;;5054325;28;20186;-77
2021/01/24 03:55:13;;;;;;;1.30;0.60;;;1.30;91.60;;;;;;5042171;28;20171;-77
2021/01/24 03:57:39;;;;;;;2.00;0.87;;;1.30;91.60;;;;;;5040996;28;20405;-78
2021/01/24 04:00:05;;;;;;;1.80;1.00;;;1.20;91.60;;;;;;5051346;28;20448;-77
2021/01/24 04:02:38;;;;;;;2.07;1.17;;;1.20;91.70;;;;;;5054905;28;20182;-76
2021/01/24 04:05:04;;;;;;;1.93;1.10;;;1.20;91.90;;;;;;5046872;28;20416;-76
2021/01/24 04:07:30;;;;;;;6.73;0.70;;;1.20;92.00;;;;;;5040842;28;20685;-77
2021/01/24 04:09:55;;;;;;;1.53;1.00;;;1.20;92.00;;;;;;5035884;28;20464;-77
2021/01/24 04:12:21;;;;;;;2.20;1.10;;;1.20;92.00;;;;;;5053544;28;20201;-76
2021/01/24 04:14:47;;;;;;;2.73;0.90;;;1.20;91.90;;;;;;5042976;28;20650;-77
2021/01/24 04:17:12;;;;;;;2.40;1.33;;;1.20;92.00;;;;;;5032315;28;20177;-76
2021/01/24 04:19:38;;;;;;;2.30;1.30;;;1.20;92.00;;;;;;5034020;28;20163;-77
2021/01/24 04:22:03;;;;;;;2.70;1.53;;;1.20;92.20;;;;;;5034669;28;20186;-76
2021/01/24 04:24:29;;;;;;;2.30;1.50;;;1.20;92.20;;;;;;5021979;28;20543;-77
2021/01/24 04:26:55;;;;;;;3.27;1.80;;;1.10;92.10;;;;;;5052477;28;20582;-76
2021/01/24 04:29:21;;;;;;;2.20;1.27;;;1.20;92.40;;;;;;5052826;28;20189;-77
2021/01/24 04:31:47;;;;;;;4.60;1.93;;;1.20;92.80;;;;;;5046540;28;20184;-76
2021/01/24 04:34:13;;;;;;;5.33;1.60;;;1.10;92.40;;;;;;5036898;28;20419;-76
2021/01/24 04:36:39;;;;;;;2.57;0.97;;;1.10;92.40;;;;;;5052234;28;20405;-76
2021/01/24 04:39:05;;;;;;;2.73;1.30;;;1.10;92.50;;;;;;5052523;28;20675;-76
2021/01/24 04:41:34;;;;;;;3.00;1.93;;;1.10;92.50;;;;;;5053330;28;20428;-76
2021/01/24 04:44:01;;;;;;;1.93;1.37;;;1.10;92.40;;;;;;5051706;28;20419;-76
2021/01/24 04:46:28;;;;;;;3.37;1.47;;;1.10;92.50;;;;;;5053499;28;20823;-77
2021/01/24 04:48:53;;;;;;;3.17;1.37;;;1.00;92.50;;;;;;5052821;28;20424;-77
2021/01/24 04:51:19;;;;;;;4.83;2.47;;;1.00;92.60;;;;;;5036466;28;20470;-77
2021/01/24 04:53:46;;;;;;;3.30;1.40;;;1.00;92.60;;;;;;5034845;28;20438;-76
2021/01/24 04:56:12;;;;;;;2.90;1.87;;;1.00;92.60;;;;;;5037056;28;20694;-77
2021/01/24 04:58:38;;;;;;;3.67;1.77;;;1.00;92.60;;;;;;5052674;28;20408;-77
2021/01/24 05:01:04;;;;;;;5.50;2.40;;;1.00;92.70;;;;;;5035559;28;20408;-76
2021/01/24 05:03:30;;;;;;;3.13;2.00;;;1.00;92.70;;;;;;5056342;28;20774;-76
2021/01/24 05:05:55;;;;;;;2.70;1.87;;;1.00;92.80;;;;;;5039598;28;20421;-78
2021/01/24 05:08:23;;;;;;;5.50;2.73;;;1.00;92.90;;;;;;5043947;28;20172;-77
2021/01/24 05:10:54;;;;;;;2.80;1.90;;;1.00;93.00;;;;;;5040781;28;20204;-77
2021/01/24 05:13:26;;;;;;;4.03;2.20;;;1.00;93.10;;;;;;5053762;28;20541;-77
2021/01/24 05:15:55;;;;;;;2.77;2.00;;;1.00;93.10;;;;;;5036477;28;20470;-78
2021/01/24 05:18:22;;;;;;;4.37;1.93;;;1.00;93.10;;;;;;5058382;28;20416;-76
2021/01/24 05:20:47;;;;;;;5.07;2.63;;;1.00;93.10;;;;;;5058058;28;20507;-77
2021/01/24 05:23:13;;;;;;;3.40;2.53;;;1.00;93.10;;;;;;5059116;28;20451;-77
2021/01/24 05:25:39;;;;;;;6.40;2.90;;;1.00;93.10;;;;;;5045781;28;20513;-76
2021/01/24 05:28:18;;;;;;;5.50;3.30;;;1.00;93.10;;;;;;5041239;28;20181;-77
2021/01/24 05:30:44;;;;;;;5.50;2.90;;;0.90;93.10;;;;;;5061216;28;20193;-76
2021/01/24 05:33:09;;;;;;;5.70;3.57;;;0.90;93.20;;;;;;5056539;28;20432;-77
2021/01/24 05:35:46;;;;;;;6.67;3.90;;;0.90;93.30;;;;;;5044949;28;20662;-77
2021/01/24 05:38:36;;;;;;;5.10;3.10;;;0.90;93.40;;;;;;5036835;28;20240;-77
2021/01/24 05:41:04;;;;;;;6.30;3.50;;;0.90;93.40;;;;;;5019146;28;20836;-78
2021/01/24 05:43:35;;;;;;;5.93;3.63;;;1.00;93.50;;;;;;5037053;28;20436;-78
2021/01/24 05:46:02;;;;;;;7.93;4.70;;;0.90;93.50;;;;;;5037110;28;20415;-78
2021/01/24 05:48:28;;;;;;;8.60;4.50;;;0.90;93.50;;;;;;5058018;28;20827;-78
2021/01/24 05:50:54;;;;;;;9.20;4.73;;;0.90;93.50;;;;;;5059451;28;20487;-79
2021/01/24 05:53:22;;;;;;;8.03;4.70;;;0.90;93.50;;;;;;5055925;28;20929;-77
2021/01/24 05:55:47;;;;;;;9.40;4.43;;;0.90;93.60;;;;;;5041710;28;20512;-76
2021/01/24 05:58:24;;;;;;;8.07;4.33;;;0.90;93.50;;;;;;5038006;28;20440;-77
2021/01/24 06:00:51;;;;;;;7.73;4.53;;;0.90;93.60;;;;;;5054364;28;20254;-78
2021/01/24 06:03:18;;;;;;;10.73;4.90;;;0.90;93.70;;;;;;5021139;28;20420;-79
2021/01/24 06:05:45;;;;;;;7.70;4.87;;;0.80;93.60;;;;;;5022082;28;20474;-77
2021/01/24 06:08:12;;;;;;;10.60;4.23;;;0.90;93.70;;;;;;5034965;28;20409;-77
2021/01/24 06:10:38;;;;;;;7.27;4.63;;;0.90;93.70;;;;;;5035989;28;20449;-77
2021/01/24 06:13:05;;;;;;;11.10;5.93;;;0.80;93.70;;;;;;5035364;28;20444;-77
2021/01/24 06:15:34;;;;;;;8.50;4.43;;;0.80;93.70;;;;;;5033041;28;20407;-79
2021/01/24 06:18:03;;;;;;;6.67;3.77;;;0.80;93.70;;;;;;5039230;28;20420;-77
2021/01/24 06:20:37;;;;;;;7.73;4.83;;;0.80;93.70;;;;;;5057636;28;20408;-78
2021/01/24 06:23:16;;;;;;;9.70;5.43;;;0.80;93.90;;;;;;5057578;28;20439;-80
2021/01/24 06:25:45;;;;;;;10.77;4.87;;;0.80;93.80;;;;;;5055286;28;20496;-78
2021/01/24 06:28:19;;;;;;;8.90;5.60;;;0.80;93.80;;;;;;5057650;28;20456;-79
2021/01/24 06:30:48;;;;;;;7.50;4.83;;;0.80;93.80;;;;;;5058370;28;20864;-78
2021/01/24 06:33:16;;;;;;;10.90;5.87;;;0.80;93.90;;;;;;5057141;28;20409;-79
2021/01/24 06:35:47;;;;;;;10.50;5.33;;;0.80;93.90;;;;;;5042188;28;20417;-77
2021/01/24 06:38:29;;;;;;;10.20;4.83;;;0.80;94.00;;;;;;5050559;28;20447;-78
2021/01/24 06:40:55;;;;;;;10.67;6.30;;;0.80;94.10;;;;;;5054798;28;20495;-78
2021/01/24 06:43:41;;;;;;;11.67;5.43;;;0.80;94.10;;;;;;5058832;28;20423;-77
2021/01/24 06:46:28;;;;;;;11.53;6.07;;;0.80;94.10;;;;;;5025385;28;20435;-79
2021/01/24 06:48:55;;;;;;;15.37;6.00;;;0.80;94.10;;;;;;5044944;28;20417;-77
2021/01/24 06:51:31;;;;;;;11.93;6.53;;;0.80;94.10;;;;;;5042062;28;20862;-81
2021/01/24 06:53:57;;;;;;;10.60;5.93;;;0.80;94.10;;;;;;5061566;28;20443;-79
2021/01/24 06:56:23;;;;;;;9.23;5.63;;;0.90;94.20;;;;;;5061151;28;20909;-79
2021/01/24 06:58:50;;;;;;;11.27;6.40;;;0.80;94.20;;;;;;5055366;28;20428;-78
2021/01/24 07:01:23;;;;;;;16.73;7.73;;;0.80;94.20;;;;;;5055421;28;20432;-78
2021/01/24 07:04:17;;;;;;;12.73;6.00;;;0.80;94.10;;;;;;5022539;28;20414;-79
2021/01/24 07:06:44;;;;;;;11.00;6.67;;;0.80;94.20;;;;;;5042610;28;20421;-78
2021/01/24 07:09:25;;;;;;;12.00;6.50;;;0.80;94.30;;;;;;5036282;28;20488;-77
2021/01/24 07:11:52;;;;;;;15.33;7.27;;;0.80;94.30;;;;;;5025048;28;20813;-78
2021/01/24 07:14:38;;;;;;;16.00;7.73;;;0.80;94.30;;;;;;5038149;28;20416;-77
2021/01/24 07:17:11;;;;;;;19.23;7.80;;;0.80;94.50;;;;;;5039205;28;20416;-77
2021/01/24 07:19:47;;;;;;;14.00;7.07;;;0.80;94.40;;;;;;5053536;28;20479;-78
2021/01/24 07:22:16;;;;;;;13.43;8.10;;;0.80;94.40;;;;;;5046016;28;21011;-78
2021/01/24 07:24:43;;;;;;;12.87;7.17;;;0.80;94.40;;;;;;5032932;28;20496;-77
2021/01/24 07:27:15;;;;;;;17.00;7.83;;;0.80;94.50;;;;;;5034235;28;20964;-77
2021/01/24 07:29:42;;;;;;;13.93;6.90;;;0.80;94.50;;;;;;5045001;28;20458;-77
2021/01/24 07:32:09;;;;;;;12.83;6.30;;;0.90;94.60;;;;;;5028786;28;20437;-77
2021/01/24 07:34:36;;;;;;;12.97;7.10;;;0.90;94.60;;;;;;5034843;28;20485;-78
2021/01/24 07:37:03;;;;;;;19.53;8.90;;;0.90;94.60;;;;;;5035248;28;20406;-77
2021/01/24 07:39:29;;;;;;;22.03;9.87;;;0.90;94.60;;;;;;5037653;28;20460;-77
2021/01/24 07:41:55;;;;;;;22.23;10.47;;;0.90;94.60;;;;;;5040001;28;20436;-79
2021/01/24 07:44:21;;;;;;;17.40;8.67;;;0.90;94.60;;;;;;5046000;28;20565;-78
2021/01/24 07:46:47;;;;;;;19.43;8.57;;;0.90;94.60;;;;;;5035684;28;20445;-77
2021/01/24 07:49:13;;;;;;;12.80;7.33;;;0.90;94.60;;;;;;5035409;28;20409;-79
2021/01/24 07:51:39;;;;;;;19.33;7.97;;;0.90;94.60;;;;;;5037687;28;20246;-78
2021/01/24 07:54:05;;;;;;;20.80;8.53;;;0.90;94.60;;;;;;5055373;28;20916;-77
2021/01/24 07:56:32;;;;;;;21.97;10.73;;;1.00;94.70;;;;;;5036082;28;20216;-77
2021/01/24 07:58:58;;;;;;;19.53;11.80;;;1.00;94.70;;;;;;5053436;28;20599;-77
2021/01/24 08:01:24;;;;;;;20.53;10.30;;;1.00;94.70;;;;;;5033799;28;20786;-78
2021/01/24 08:03:50;;;;;;;25.90;11.07;;;1.00;94.70;;;;;;5053110;28;20434;-76
2021/01/24 08:06:16;;;;;;;19.50;9.83;;;1.10;94.80;;;;;;5052501;28;20420;-76
2021/01/24 08:08:44;;;;;;;19.53;10.17;;;1.10;94.80;;;;;;5052539;28;20426;-76
2021/01/24 08:11:10;;;;;;;23.03;9.60;;;1.10;94.70;;;;;;5051657;28;20465;-76
2021/01/24 08:13:37;;;;;;;25.93;10.30;;;1.10;94.70;;;;;;5047808;28;20440;-77
2021/01/24 08:16:14;;;;;;;23.00;11.80;;;1.10;94.70;;;;;;5000495;28;20417;-78
2021/01/24 08:18:43;;;;;;;19.10;9.93;;;1.20;94.80;;;;;;5033612;28;21038;-78
2021/01/24 08:21:09;;;;;;;22.50;10.17;;;1.20;94.70;;;;;;5035821;28;20425;-77
2021/01/24 08:23:39;;;;;;;28.10;10.63;;;1.20;94.80;;;;;;5035724;28;20424;-77
2021/01/24 08:26:05;;;;;;;28.80;14.73;;;1.20;94.70;;;;;;5023947;28;20421;-77
2021/01/24 08:28:34;;;;;;;25.93;11.53;;;1.30;94.80;;;;;;5043817;28;20586;-76
2021/01/24 08:31:02;;;;;;;26.40;13.37;;;1.30;94.70;;;;;;5069875;28;20437;-77
2021/01/24 08:33:28;;;;;;;26.97;11.57;;;1.30;94.70;;;;;;5036087;28;20436;-78
2021/01/24 08:36:08;;;;;;;25.77;12.03;;;1.40;94.80;;;;;;5035027;28;20461;-79
2021/01/24 08:38:34;;;;;;;23.93;12.27;;;1.40;94.80;;;;;;5037495;28;20420;-77
2021/01/24 08:41:00;;;;;;;26.97;12.80;;;1.50;94.80;;;;;;5051613;28;20432;-78
2021/01/24 08:43:26;;;;;;;31.47;13.87;;;1.50;94.80;;;;;;5055662;28;20972;-79
2021/01/24 08:45:51;;;;;;;28.60;13.17;;;1.60;94.80;;;;;;5056092;28;20542;-78
2021/01/24 08:48:17;;;;;;;24.63;12.70;;;1.60;94.60;;;;;;5057766;28;20169;-77
2021/01/24 08:50:44;;;;;;;20.63;10.80;;;1.60;94.40;;;;;;5059020;28;20193;-77
2021/01/24 08:53:09;;;;;;;22.53;11.23;;;1.60;94.30;;;;;;5039410;28;20194;-78
2021/01/24 08:55:49;;;;;;;25.03;12.03;;;1.60;94.30;;;;;;5022319;28;20890;-78
2021/01/24 08:58:28;;;;;;;23.57;11.67;;;1.60;94.10;;;;;;5021551;28;20170;-77
2021/01/24 09:01:11;;;;;;;24.20;11.27;;;1.60;94.10;;;;;;5038472;28;20454;-78
2021/01/24 09:03:37;;;;;;;22.00;10.53;;;1.70;94.10;;;;;;5021238;28;20421;-78
2021/01/24 09:06:13;;;;;;;26.90;10.90;;;1.70;94.40;;;;;;5040904;28;20405;-78
2021/01/24 09:08:52;;;;;;;17.70;10.27;;;1.70;94.00;;;;;;5021139;28;20505;-78
2021/01/24 09:11:18;;;;;;;19.77;10.30;;;1.70;93.90;;;;;;5041141;28;20456;-78
2021/01/24 09:13:44;;;;;;;21.67;10.70;;;1.70;94.00;;;;;;5020822;28;20413;-79
2021/01/24 09:16:10;;;;;;;21.53;10.20;;;1.70;94.00;;;;;;5010432;28;20551;-78
2021/01/24 09:18:36;;;;;;;25.00;13.17;;;1.70;94.10;;;;;;5043359;28;20175;-78
2021/01/24 09:21:03;;;;;;;25.77;11.13;;;1.70;94.00;;;;;;5048628;28;20166;-79
2021/01/24 09:23:30;;;;;;;20.63;10.50;;;1.70;93.90;;;;;;5061329;28;20177;-77
2021/01/24 09:25:56;;;;;;;16.90;8.07;;;1.70;93.80;;;;;;5059523;28;20420;-78
2021/01/24 09:28:24;;;;;;;15.77;9.03;;;1.70;93.80;;;;;;5061530;28;20408;-78
2021/01/24 09:30:50;;;;;;;22.70;9.23;;;1.70;93.80;;;;;;5047240;28;20479;-77
2021/01/24 09:33:16;;;;;;;14.60;8.07;;;1.70;93.90;;;;;;5063168;28;20411;-79
2021/01/24 09:35:42;;;;;;;13.60;6.67;;;1.80;93.90;;;;;;5060372;28;20778;-78
2021/01/24 09:38:07;;;;;;;15.90;7.47;;;1.80;93.90;;;;;;5058827;28;20404;-77
2021/01/24 09:40:33;;;;;;;16.90;8.63;;;1.80;93.80;;;;;;5060901;28;20598;-79
2021/01/24 09:42:59;;;;;;;20.73;9.20;;;1.80;93.60;;;;;;5042227;28;20258;-78
2021/01/24 09:45:24;;;;;;;17.17;8.80;;;1.90;93.60;;;;;;5039839;28;20177;-78
2021/01/24 09:47:51;;;;;;;14.13;6.70;;;1.90;93.60;;;;;;5047533;28;20189;-79
2021/01/24 09:50:18;;;;;;;14.70;7.17;;;1.90;93.50;;;;;;5069033;28;20251;-77
2021/01/24 09:52:44;;;;;;;18.00;8.70;;;1.90;93.30;;;;;;5069415;28;20427;-79
2021/01/24 09:55:10;;;;;;;17.70;8.07;;;1.90;93.20;;;;;;5047486;28;20424;-79
2021/01/24 09:57:37;;;;;;;14.63;8.33;;;2.00;93.40;;;;;;5060661;28;20428;-80
2021/01/24 10:00:05;;;;;;;17.57;8.53;;;2.00;93.40;;;;;;5033017;28;20417;-79
2021/01/24 10:02:37;;;;;;;14.97;6.67;;;2.00;93.00;;;;;;5069068;28;20427;-79
2021/01/24 10:05:04;;;;;;;15.23;7.50;;;2.00;93.10;;;;;;5043215;28;20531;-78
2021/01/24 10:07:29;;;;;;;13.93;7.07;;;2.00;92.70;;;;;;5058498;28;20170;-78
2021/01/24 10:09:55;;;;;;;12.93;7.40;;;2.00;92.80;;;;;;5041349;28;20471;-78
2021/01/24 10:12:20;;;;;;;14.53;7.00;;;2.10;92.70;;;;;;5056946;28;20620;-78
2021/01/24 10:14:46;;;;;;;14.00;7.00;;;2.10;92.80;;;;;;5042084;28;20221;-77
2021/01/24 10:17:12;;;;;;;19.93;7.50;;;2.20;92.60;;;;;;5041931;28;20170;-78
2021/01/24 10:19:39;;;;;;;12.87;7.00;;;2.20;92.50;;;;;;5056516;28;20445;-78
2021/01/24 10:22:05;;;;;;;12.80;7.83;;;2.20;92.50;;;;;;5056339;28;20671;-78
2021/01/24 10:24:30;;;;;;;17.43;8.57;;;2.20;92.70;;;;;;5059274;28;20606;-79
2021/01/24 10:26:56;;;;;;;19.93;8.80;;;2.30;92.40;;;;;;5061257;28;20454;-79
2021/01/24 10:29:22;;;;;;;18.40;8.77;;;2.30;92.40;;;;;;5058975;28;20174;-77
2021/01/24 10:31:48;;;;;;;18.60;8.83;;;2.40;92.40;;;;;;5047440;28;20195;-77
2021/01/24 10:34:13;;;;;;;17.60;9.13;;;2.40;92.30;;;;;;5032529;28;20193;-78
2021/01/24 10:36:39;;;;;;;20.87;10.97;;;2.50;92.30;;;;;;5059530;28;20539;-78
2021/01/24 10:39:05;;;;;;;26.90;9.97;;;2.50;92.10;;;;;;5062923;28;20565;-78
2021/01/24 10:41:30;;;;;;;23.33;13.40;;;2.60;92.10;;;;;;5030479;28;20217;-81
2021/01/24 10:43:58;;;;;;;23.13;11.80;;;2.70;91.60;;;;;;5068133;28;20428;-80
2021/01/24 10:46:24;;;;;;;29.00;14.07;;;2.70;91.70;;;;;;5047769;28;20177;-81
2021/01/24 10:48:49;;;;;;;39.97;14.80;;;3.00;92.40;;;;;;5046769;28;20515;-80
2021/01/24 10:51:15;;;;;;;27.83;14.10;;;3.10;91.60;;;;;;5065199;28;20209;-81
2021/01/24 10:53:40;;;;;;;27.20;13.50;;;3.20;91.20;;;;;;5065272;28;20166;-80
2021/01/24 10:56:06;;;;;;;24.03;13.43;;;3.30;90.90;;;;;;5062989;28;20167;-81
2021/01/24 10:58:32;;;;;;;55.33;21.17;;;3.40;90.60;;;;;;5028253;28;20209;-80
2021/01/24 11:00:57;;;;;;;47.07;20.90;;;3.40;90.30;;;;;;5027987;28;20171;-80
2021/01/24 11:03:23;;;;;;;51.47;22.77;;;3.40;90.20;;;;;;5048149;28;20239;-79
2021/01/24 11:05:49;;;;;;;47.60;19.20;;;3.40;89.90;;;;;;5048840;28;20170;-81
2021/01/24 11:08:14;;;;;;;24.73;14.20;;;3.40;89.40;;;;;;5046738;28;20170;-80
2021/01/24 11:10:40;;;;;;;20.67;12.43;;;3.40;89.90;;;;;;5028917;28;20194;-80
2021/01/24 11:13:05;;;;;;;20.93;11.47;;;3.50;89.90;;;;;;5029117;28;20199;-79
2021/01/24 11:15:31;;;;;;;23.63;12.80;;;3.60;90.00;;;;;;5047341;28;20170;-79
2021/01/24 11:17:57;;;;;;;20.50;11.30;;;3.70;89.40;;;;;;5049042;28;20166;-80
2021/01/24 11:20:23;;;;;;;26.17;11.97;;;3.80;88.30;;;;;;5030052;28;20433;-80
2021/01/24 11:22:49;;;;;;;16.97;10.87;;;3.90;87.50;;;;;;5030112;28;20198;-80
2021/01/24 11:25:15;;;;;;;25.00;11.57;;;3.90;87.40;;;;;;5049600;28;20416;-80
2021/01/24 11:27:41;;;;;;;17.13;11.07;;;3.80;86.60;;;;;;5033528;28;20226;-80
2021/01/24 11:30:10;;;;;;;21.77;11.93;;;3.80;86.50;;;;;;5044294;28;20301;-80
2021/01/24 11:32:40;;;;;;;26.70;11.50;;;3.70;86.80;;;;;;5057308;28;20603;-79
2021/01/24 11:35:07;;;;;;;20.40;12.57;;;3.60;87.80;;;;;;5046335;28;20416;-80
2021/01/24 11:37:33;;;;;;;19.37;11.10;;;3.50;87.00;;;;;;5043298;28;20437;-80
2021/01/24 11:39:59;;;;;;;17.67;11.37;;;3.50;87.60;;;;;;5061598;28;20423;-79
2021/01/24 11:42:25;;;;;;;17.57;11.10;;;3.40;86.90;;;;;;5047420;28;20622;-81
2021/01/24 11:44:51;;;;;;;16.27;10.17;;;3.40;88.00;;;;;;5047527;28;20192;-82
2021/01/24 11:47:17;;;;;;;16.40;9.67;;;3.40;87.60;;;;;;5056832;28;20432;-82
2021/01/24 11:49:42;;;;;;;18.10;11.63;;;3.40;87.50;;;;;;5047397;28;20623;-82
2021/01/24 11:52:08;;;;;;;22.43;11.00;;;3.40;86.50;;;;;;5048748;28;20213;-82
2021/01/24 11:54:33;;;;;;;19.00;10.50;;;3.30;86.50;;;;;;5044625;28;20690;-80
2021/01/24 11:56:59;;;;;;;16.50;11.57;;;3.30;87.50;;;;;;5051899;28;20174;-81
2021/01/24 11:59:25;;;;;;;21.67;10.97;;;3.30;87.20;;;;;;5070550;28;20170;-81
2021/01/24 12:01:50;;;;;;;16.37;10.30;;;3.30;86.90;;;;;;5047360;28;20198;-80
2021/01/24 12:04:16;;;;;;;21.43;11.80;;;3.30;87.50;;;;;;5029403;28;20162;-82
2021/01/24 12:06:41;;;;;;;16.60;9.33;;;3.30;87.20;;;;;;5045950;28;20642;-84
2021/01/24 12:09:07;;;;;;;20.53;11.60;;;3.40;87.30;;;;;;5063121;28;20666;-81
2021/01/24 12:11:35;;;;;;;18.60;11.10;;;3.40;87.00;;;;;;5027561;28;20229;-81
2021/01/24 12:14:02;;;;;;;18.43;12.10;;;3.50;86.70;;;;;;5025902;28;20181;-82
2021/01/24 12:16:27;;;;;;;17.77;10.53;;;3.60;87.60;;;;;;5015214;28;20510;-81
2021/01/24 12:18:53;;;;;;;17.70;11.90;;;3.80;86.80;;;;;;5064017;28;20400;-82
2021/01/24 12:21:19;;;;;;;23.03;11.53;;;4.00;87.40;;;;;;5059379;28;20212;-83
2021/01/24 12:23:44;;;;;;;31.20;12.60;;;4.30;85.30;;;;;;5062636;28;20242;-81
2021/01/24 12:26:10;;;;;;;17.00;11.77;;;4.50;84.10;;;;;;5030118;28;20170;-83
2021/01/24 12:28:36;;;;;;;17.40;11.00;;;4.50;82.80;;;;;;5009363;28;20193;-84
2021/01/24 12:31:02;;;;;;;24.90;13.03;;;4.40;83.00;;;;;;5024894;28;20457;-83
2021/01/24 12:33:27;;;;;;;15.40;10.10;;;4.40;82.00;;;;;;5049145;28;20172;-83
2021/01/24 12:35:53;;;;;;;22.93;13.03;;;4.30;82.20;;;;;;5045812;28;20174;-84
2021/01/24 12:38:19;;;;;;;25.70;15.50;;;4.10;82.10;;;;;;5063381;28;20165;-83
2021/01/24 12:40:44;;;;;;;18.00;9.23;;;4.10;82.90;;;;;;5063984;28;20658;-83
2021/01/24 12:43:10;;;;;;;14.43;8.73;;;4.10;83.20;;;;;;5054913;28;20185;-84
2021/01/24 12:45:36;;;;;;;24.87;16.90;;;4.00;82.10;;;;;;5049841;28;20185;-83
2021/01/24 12:48:01;;;;;;;15.40;9.80;;;3.90;82.90;;;;;;5025087;28;20183;-78
2021/01/24 12:50:27;;;;;;;15.03;8.50;;;3.80;83.50;;;;;;5031224;28;20194;-84